createdAt,value
2023-05-10T00:01:33.247Z,5.20
2023-05-10T00:03:36.079Z,4.28
2023-05-10T00:05:38.820Z,5.22
2023-05-10T00:07:41.587Z,4.00
2023-05-10T00:09:44.140Z,5.70
2023-05-10T00:11:46.825Z,3.75
2023-05-10T00:13:49.649Z,3.50
2023-05-10T00:15:52.669Z,5.45
2023-05-10T00:17:56.661Z,3.13
2023-05-10T00:19:59.395Z,5.68
2023-05-10T00:22:02.756Z,4.05
2023-05-10T00:24:05.952Z,5.30
2023-05-10T00:26:08.664Z,6.15
2023-05-10T00:28:11.336Z,4.68
2023-05-10T00:30:14.229Z,5.05
2023-05-10T00:32:17.590Z,4.65
2023-05-10T00:34:21.767Z,3.60
2023-05-10T00:36:24.325Z,4.97
2023-05-10T00:38:27.002Z,3.90
2023-05-10T00:40:29.856Z,3.30
2023-05-10T00:42:32.510Z,3.40
2023-05-10T00:44:35.068Z,5.18
2023-05-10T00:46:38.031Z,2.90
2023-05-10T00:48:40.604Z,4.72
2023-05-10T00:50:44.766Z,4.20
2023-05-10T00:52:47.431Z,3.00
2023-05-10T00:54:50.210Z,2.83
2023-05-10T00:56:53.122Z,3.13
2023-05-10T00:58:56.224Z,3.92
2023-05-10T01:00:59.608Z,2.15
2023-05-10T01:03:02.696Z,3.42
2023-05-10T01:05:06.129Z,4.18
2023-05-10T01:07:10.287Z,4.82
2023-05-10T01:09:13.636Z,5.88
2023-05-10T01:11:16.439Z,5.00
2023-05-10T01:13:25.848Z,3.42
2023-05-10T01:17:32.461Z,1.90
2023-05-10T01:19:37.991Z,1.98
2023-05-10T01:21:45.141Z,2.30
2023-05-10T01:23:58.949Z,3.22
2023-05-10T01:26:16.802Z,5.35
2023-05-10T01:28:28.178Z,3.00
2023-05-10T01:30:45.679Z,2.00
2023-05-10T01:32:53.478Z,1.95
2023-05-10T01:34:58.292Z,1.73
2023-05-10T01:37:04.808Z,2.25
2023-05-10T01:39:11.222Z,2.80
2023-05-10T01:41:16.668Z,2.65
2023-05-10T01:43:21.796Z,2.15
2023-05-10T01:45:29.087Z,3.03
2023-05-10T01:47:34.256Z,1.63
2023-05-10T01:49:41.453Z,2.38
2023-05-10T01:51:47.241Z,1.98
2023-05-10T01:53:50.389Z,1.80
2023-05-10T01:55:54.430Z,3.53
2023-05-10T01:58:01.056Z,2.65
2023-05-10T02:00:04.510Z,2.92
2023-05-10T02:02:07.535Z,2.40
2023-05-10T02:04:11.538Z,1.40
2023-05-10T02:06:16.766Z,1.70
2023-05-10T02:08:19.966Z,2.50
2023-05-10T02:10:22.793Z,3.08
2023-05-10T02:12:26.205Z,2.88
2023-05-10T02:14:29.507Z,3.22
2023-05-10T02:16:32.929Z,3.20
2023-05-10T02:18:36.962Z,3.83
2023-05-10T02:20:40.088Z,3.00
2023-05-10T02:22:45.063Z,3.42
2023-05-10T02:24:49.054Z,2.53
2023-05-10T02:26:52.409Z,2.70
2023-05-10T02:28:56.131Z,3.13
2023-05-10T02:30:58.987Z,2.38
2023-05-10T02:33:02.997Z,1.75
2023-05-10T02:35:06.287Z,3.30
2023-05-10T02:37:09.026Z,2.88
2023-05-10T02:39:14.467Z,2.63
2023-05-10T02:41:17.267Z,2.33
2023-05-10T02:43:20.507Z,2.40
2023-05-10T02:45:25.807Z,2.10
2023-05-10T02:47:28.877Z,1.65
2023-05-10T02:49:31.619Z,2.55
2023-05-10T02:51:37.131Z,1.83
2023-05-10T02:53:43.071Z,2.80
2023-05-10T02:55:48.674Z,1.67
2023-05-10T02:57:54.251Z,2.45
2023-05-10T02:59:56.930Z,2.20
2023-05-10T03:01:59.775Z,1.70
2023-05-10T03:04:02.567Z,1.63
2023-05-10T03:06:05.397Z,1.85
2023-05-10T03:08:08.326Z,1.90
2023-05-10T03:10:11.643Z,2.97
2023-05-10T03:12:17.595Z,2.70
2023-05-10T03:14:26.403Z,3.30
2023-05-10T03:16:31.475Z,2.40
2023-05-10T03:18:36.552Z,2.92
2023-05-10T03:20:43.401Z,1.95
2023-05-10T03:22:47.512Z,2.63
2023-05-10T03:24:50.985Z,1.95
2023-05-10T03:26:55.913Z,1.63
2023-05-10T03:29:00.744Z,1.85
2023-05-10T03:31:04.659Z,1.95
2023-05-10T03:33:08.110Z,2.70
2023-05-10T03:35:10.993Z,2.92
2023-05-10T03:37:13.794Z,1.52
2023-05-10T03:39:16.489Z,1.75
2023-05-10T03:41:19.042Z,1.10
2023-05-10T03:43:21.676Z,1.90
2023-05-10T03:45:25.727Z,2.13
2023-05-10T03:47:28.307Z,1.13
2023-05-10T03:49:30.980Z,1.08
2023-05-10T03:51:33.708Z,1.77
2023-05-10T03:53:36.585Z,1.05
2023-05-10T03:55:39.302Z,2.22
2023-05-10T03:57:41.942Z,1.70
2023-05-10T03:59:44.512Z,1.00
2023-05-10T04:01:48.570Z,1.52
2023-05-10T04:03:51.196Z,2.63
2023-05-10T04:06:00.484Z,3.50
2023-05-10T04:08:03.106Z,2.15
2023-05-10T04:10:06.134Z,1.52
2023-05-10T04:12:10.730Z,1.92
2023-05-10T04:14:13.776Z,1.10
2023-05-10T04:16:16.372Z,2.00
2023-05-10T04:18:20.411Z,2.03
2023-05-10T04:20:23.050Z,2.42
2023-05-10T04:22:25.685Z,1.08
2023-05-10T04:24:28.312Z,2.00
2023-05-10T04:26:31.051Z,1.63
2023-05-10T04:28:33.832Z,1.20
2023-05-10T04:30:36.862Z,0.77
2023-05-10T04:32:39.568Z,0.93
2023-05-10T04:34:44.754Z,1.50
2023-05-10T04:36:47.460Z,1.38
2023-05-10T04:38:50.115Z,1.45
2023-05-10T04:40:52.711Z,1.27
2023-05-10T04:42:55.407Z,2.55
2023-05-10T04:44:58.060Z,1.40
2023-05-10T04:47:00.780Z,1.35
2023-05-10T04:49:03.387Z,1.85
2023-05-10T04:51:07.559Z,1.30
2023-05-10T04:53:10.147Z,2.08
2023-05-10T04:55:12.693Z,2.08
2023-05-10T04:57:16.159Z,1.85
2023-05-10T04:59:19.158Z,1.27
2023-05-10T05:01:22.378Z,1.70
2023-05-10T05:03:25.173Z,0.75
2023-05-10T05:05:27.933Z,1.23
2023-05-10T05:07:31.989Z,1.85
2023-05-10T05:09:34.610Z,1.05
2023-05-10T05:11:37.515Z,2.38
2023-05-10T05:13:40.330Z,2.15
2023-05-10T05:15:42.980Z,0.93
2023-05-10T05:17:45.719Z,0.68
2023-05-10T05:19:48.350Z,1.25
2023-05-10T05:21:51.336Z,1.13
2023-05-10T05:23:55.230Z,2.15
2023-05-10T05:25:57.891Z,1.75
2023-05-10T05:28:00.832Z,2.17
2023-05-10T05:30:03.639Z,2.03
2023-05-10T05:32:06.737Z,0.98
2023-05-10T05:34:09.439Z,1.27
2023-05-10T05:36:12.026Z,0.93
2023-05-10T05:38:14.620Z,1.50
2023-05-10T05:40:18.606Z,1.00
2023-05-10T05:42:21.383Z,1.88
2023-05-10T05:44:24.107Z,3.33
2023-05-10T05:46:26.911Z,2.05
2023-05-10T05:48:31.240Z,2.13
2023-05-10T05:50:33.854Z,1.35
2023-05-10T05:52:36.982Z,2.80
2023-05-10T05:54:39.556Z,0.88
2023-05-10T05:56:43.555Z,1.45
2023-05-10T05:58:46.719Z,1.65
2023-05-10T06:00:49.509Z,1.20
2023-05-10T06:02:52.175Z,1.48
2023-05-10T06:04:54.801Z,1.52
2023-05-10T06:06:57.465Z,2.58
2023-05-10T06:09:00.276Z,1.23
2023-05-10T06:11:03.150Z,1.67
2023-05-10T06:13:07.200Z,1.52
2023-05-10T06:15:10.603Z,3.35
2023-05-10T06:17:13.243Z,2.15
2023-05-10T06:19:15.867Z,1.17
2023-05-10T06:21:18.406Z,1.48
2023-05-10T06:23:21.200Z,1.80
2023-05-10T06:25:23.885Z,1.80
2023-05-10T06:27:26.912Z,1.52
2023-05-10T06:29:30.909Z,2.20
2023-05-10T06:31:33.605Z,1.83
2023-05-10T06:33:36.344Z,1.58
2023-05-10T06:35:39.857Z,1.83
2023-05-10T06:37:42.461Z,2.35
2023-05-10T06:39:45.159Z,2.45
2023-05-10T06:41:47.930Z,1.45
2023-05-10T06:43:50.521Z,2.70
2023-05-10T06:45:54.658Z,4.20
2023-05-10T06:47:57.268Z,2.63
2023-05-10T06:50:00.046Z,2.08
2023-05-10T06:52:02.716Z,2.72
2023-05-10T06:54:05.804Z,2.40
2023-05-10T06:56:08.532Z,2.92
2023-05-10T06:58:11.504Z,3.30
2023-05-10T07:00:14.703Z,3.85
2023-05-10T07:02:18.783Z,1.85
2023-05-10T07:04:21.493Z,2.45
2023-05-10T07:06:32.931Z,2.10
2023-05-10T07:08:36.717Z,2.03
2023-05-10T07:10:39.425Z,1.60
2023-05-10T07:12:42.378Z,2.55
2023-05-10T07:14:45.060Z,2.65
2023-05-10T07:16:48.125Z,1.73
2023-05-10T07:18:54.005Z,2.47
2023-05-10T07:20:56.598Z,2.15
2023-05-10T07:22:59.298Z,2.83
2023-05-10T07:25:01.896Z,1.95
2023-05-10T07:27:05.232Z,2.53
2023-05-10T07:29:07.904Z,2.42
2023-05-10T07:31:10.563Z,3.33
2023-05-10T07:33:14.948Z,2.45
2023-05-10T07:35:19.169Z,3.33
2023-05-10T07:37:21.722Z,2.15
2023-05-10T07:39:27.272Z,2.38
2023-05-10T07:41:30.874Z,3.22
2023-05-10T07:43:33.581Z,2.60
2023-05-10T07:45:36.295Z,3.70
2023-05-10T07:47:38.935Z,3.92
2023-05-10T07:49:41.719Z,2.10
2023-05-10T07:51:45.713Z,2.30
2023-05-10T07:53:48.333Z,2.53
2023-05-10T07:55:52.550Z,3.72
2023-05-10T07:57:55.349Z,2.67
2023-05-10T07:59:58.074Z,3.03
2023-05-10T08:02:01.752Z,2.75
2023-05-10T08:04:04.592Z,2.03
2023-05-10T08:06:07.944Z,3.55
2023-05-10T08:08:11.896Z,2.80
2023-05-10T08:10:14.726Z,3.15
2023-05-10T08:12:17.284Z,2.42
2023-05-10T08:14:19.973Z,2.22
2023-05-10T08:16:22.655Z,3.00
2023-05-10T08:18:25.668Z,3.83
2023-05-10T08:20:28.399Z,3.28
2023-05-10T08:22:31.368Z,4.60
2023-05-10T08:24:39.418Z,3.20
2023-05-10T08:26:42.103Z,10.05
2023-05-10T08:28:44.847Z,3.75
2023-05-10T08:30:47.607Z,4.63
2023-05-10T08:32:50.362Z,4.45
2023-05-10T08:34:53.000Z,4.95
2023-05-10T08:36:55.724Z,4.95
2023-05-10T08:38:58.454Z,8.68
2023-05-10T08:41:03.891Z,5.88
2023-05-10T08:43:07.907Z,4.53
2023-05-10T08:45:11.705Z,6.63
2023-05-10T08:47:14.788Z,10.45
2023-05-10T08:49:19.567Z,4.10
2023-05-10T08:51:24.828Z,5.97
2023-05-10T08:53:28.954Z,5.43
2023-05-10T08:55:31.734Z,5.40
2023-05-10T08:57:35.711Z,3.47
2023-05-10T08:59:40.357Z,5.40
2023-05-10T09:01:45.054Z,4.40
2023-05-10T09:03:48.282Z,7.03
2023-05-10T09:05:52.548Z,4.25
2023-05-10T09:07:55.192Z,4.75
2023-05-10T09:09:58.077Z,6.70
2023-05-10T09:12:00.738Z,5.25
2023-05-10T09:14:04.975Z,5.53
2023-05-10T09:16:20.351Z,5.63
2023-05-10T09:18:27.254Z,4.78
2023-05-10T09:20:30.791Z,8.20
2023-05-10T09:22:33.690Z,6.25
2023-05-10T09:24:37.865Z,7.20
2023-05-10T09:26:47.728Z,11.20
2023-05-10T09:28:54.236Z,6.07
2023-05-10T09:30:58.493Z,4.50
2023-05-10T09:33:01.693Z,5.93
2023-05-10T09:35:08.162Z,6.63
2023-05-10T09:37:11.534Z,6.53
2023-05-10T09:39:14.231Z,6.75
2023-05-10T09:41:21.089Z,6.18
2023-05-10T09:43:23.656Z,8.57
2023-05-10T09:45:26.974Z,8.77
2023-05-10T09:47:31.889Z,6.07
2023-05-10T09:49:35.000Z,7.88
2023-05-10T09:51:38.238Z,6.05
2023-05-10T09:53:40.769Z,7.50
2023-05-10T09:55:45.719Z,6.55
2023-05-10T09:57:49.031Z,7.75
2023-05-10T09:59:52.018Z,5.32
2023-05-10T10:01:55.261Z,6.13
2023-05-10T10:03:59.751Z,8.35
2023-05-10T10:06:02.348Z,9.38
2023-05-10T10:08:05.828Z,9.43
2023-05-10T10:10:12.478Z,7.03
2023-05-10T10:12:15.258Z,6.88
2023-05-10T10:14:18.999Z,6.65
2023-05-10T10:16:22.176Z,8.40
2023-05-10T10:18:28.076Z,8.73
2023-05-10T10:20:32.282Z,7.75
2023-05-10T10:22:34.964Z,10.40
2023-05-10T10:24:37.864Z,8.75
2023-05-10T10:26:43.675Z,11.00
2023-05-10T10:28:50.502Z,8.57
2023-05-10T10:30:53.989Z,14.38
2023-05-10T10:33:27.361Z,10.02
2023-05-10T10:35:35.913Z,7.97
2023-05-10T10:37:48.585Z,9.90
2023-05-10T10:39:51.630Z,12.45
2023-05-10T10:41:55.086Z,9.32
2023-05-10T10:44:12.926Z,8.98
2023-05-10T10:46:16.312Z,9.10
2023-05-10T10:48:22.560Z,10.43
2023-05-10T10:50:25.135Z,10.18
2023-05-10T10:52:31.954Z,8.50
2023-05-10T10:54:34.576Z,10.07
2023-05-10T10:56:37.284Z,10.00
2023-05-10T10:58:40.506Z,9.40
2023-05-10T11:00:45.548Z,8.48
2023-05-10T11:02:49.834Z,9.40
2023-05-10T11:04:52.626Z,9.80
2023-05-10T11:07:15.331Z,8.15
2023-05-10T11:09:19.560Z,9.82
2023-05-10T11:11:22.490Z,9.60
2023-05-10T11:13:31.778Z,10.15
2023-05-10T11:15:35.050Z,11.32
2023-05-10T11:17:37.674Z,12.30
2023-05-10T11:20:00.262Z,11.20
2023-05-10T11:22:15.638Z,13.45
2023-05-10T11:24:20.988Z,9.48
2023-05-10T11:26:26.202Z,8.43
2023-05-10T11:28:29.344Z,9.55
2023-05-10T11:30:32.930Z,11.10
2023-05-10T11:32:35.688Z,12.70
2023-05-10T11:34:38.307Z,17.85
2023-05-10T11:36:41.093Z,17.02
2023-05-10T11:38:43.955Z,19.42
2023-05-10T11:40:48.464Z,15.15
2023-05-10T11:42:51.109Z,14.77
2023-05-10T11:44:53.717Z,13.60
2023-05-10T11:46:58.700Z,12.32
2023-05-10T11:49:05.214Z,13.15
2023-05-10T11:51:09.010Z,15.20
2023-05-10T11:53:11.994Z,15.45
2023-05-10T11:55:14.895Z,25.80
2023-05-10T11:57:20.043Z,32.15
2023-05-10T11:59:22.649Z,26.50
2023-05-10T12:01:25.718Z,22.73
2023-05-10T12:03:29.088Z,20.45
2023-05-10T12:05:33.968Z,12.23
2023-05-10T12:07:36.597Z,8.85
2023-05-10T12:09:44.206Z,11.25
2023-05-10T12:11:47.385Z,11.50
2023-05-10T12:13:51.560Z,7.95
2023-05-10T12:15:54.344Z,8.95
2023-05-10T12:17:58.815Z,10.60
2023-05-10T12:20:01.775Z,8.20
2023-05-10T12:22:06.547Z,9.50
2023-05-10T12:24:09.986Z,7.55
2023-05-10T12:26:12.662Z,9.48
2023-05-10T12:28:15.327Z,7.35
2023-05-10T12:30:22.995Z,8.57
2023-05-10T12:32:39.274Z,9.60
2023-05-10T12:34:41.880Z,9.50
2023-05-10T12:36:44.453Z,10.27
2023-05-10T12:38:48.964Z,9.30
2023-05-10T12:40:52.032Z,7.05
2023-05-10T12:42:54.835Z,10.15
2023-05-10T12:44:57.743Z,8.90
2023-05-10T12:47:01.642Z,8.40
2023-05-10T12:49:09.085Z,10.30
2023-05-10T12:51:13.809Z,8.27
2023-05-10T12:53:17.548Z,8.50
2023-05-10T12:55:20.076Z,7.43
2023-05-10T12:57:23.200Z,11.30
2023-05-10T12:59:26.133Z,10.55
2023-05-10T13:01:28.976Z,8.20
2023-05-10T13:03:33.065Z,12.77
2023-05-10T13:05:35.822Z,10.05
2023-05-10T13:07:38.384Z,16.90
2023-05-10T13:09:41.322Z,16.17
2023-05-10T13:11:43.909Z,17.85
2023-05-10T13:13:46.467Z,15.25
2023-05-10T13:15:49.036Z,12.27
2023-05-10T13:17:51.603Z,13.15
2023-05-10T13:19:55.691Z,11.38
2023-05-10T13:21:59.079Z,11.98
2023-05-10T13:24:02.337Z,10.95
2023-05-10T13:26:04.897Z,9.93
2023-05-10T13:28:07.676Z,11.77
2023-05-10T13:30:10.763Z,10.73
2023-05-10T13:32:13.394Z,8.23
2023-05-10T13:34:16.306Z,9.57
2023-05-10T13:36:20.378Z,7.60
2023-05-10T13:38:22.990Z,13.52
2023-05-10T13:40:25.834Z,31.13
2023-05-10T13:42:28.399Z,18.38
2023-05-10T13:44:31.053Z,12.45
2023-05-10T13:46:33.637Z,53.55
2023-05-10T13:48:39.120Z,38.72
2023-05-10T13:50:42.004Z,44.42
2023-05-10T13:52:45.933Z,42.17
2023-05-10T13:54:48.556Z,21.05
2023-05-10T13:56:51.430Z,21.27
2023-05-10T13:58:54.068Z,13.07
2023-05-10T14:00:57.502Z,14.20
2023-05-10T14:03:00.145Z,12.77
2023-05-10T14:05:03.122Z,21.33
2023-05-10T14:07:05.765Z,11.35
2023-05-10T14:09:09.765Z,12.93
2023-05-10T14:11:12.379Z,10.63
2023-05-10T14:13:15.000Z,15.63
2023-05-10T14:15:17.994Z,11.50
2023-05-10T14:17:20.873Z,10.68
2023-05-10T14:19:23.443Z,12.70
2023-05-10T14:21:26.015Z,12.82
2023-05-10T14:23:29.625Z,9.40
2023-05-10T14:25:34.122Z,6.93
2023-05-10T14:27:36.667Z,16.10
2023-05-10T14:29:39.325Z,9.95
2023-05-10T14:31:42.137Z,11.77
2023-05-10T14:33:44.807Z,8.90
2023-05-10T14:35:47.724Z,13.15
2023-05-10T14:37:50.287Z,11.23
2023-05-10T14:39:53.375Z,10.85
2023-05-10T14:41:57.432Z,7.50
2023-05-10T14:44:00.231Z,6.97
2023-05-10T14:46:02.991Z,6.43
2023-05-10T14:48:06.820Z,9.27
2023-05-10T14:50:09.920Z,6.10
2023-05-10T14:52:13.201Z,6.95
2023-05-10T14:54:15.806Z,8.07
2023-05-10T14:56:18.388Z,3.97
2023-05-10T14:58:22.416Z,7.32
2023-05-10T15:00:25.150Z,6.25
2023-05-10T15:02:28.037Z,6.43
2023-05-10T15:04:31.055Z,7.78
2023-05-10T15:06:34.736Z,6.25
2023-05-10T15:08:37.268Z,5.55
2023-05-10T15:10:39.918Z,4.25
2023-05-10T15:12:42.670Z,4.88
2023-05-10T15:14:46.620Z,5.63
2023-05-10T15:16:49.226Z,6.10
2023-05-10T15:18:51.854Z,6.15
2023-05-10T15:20:54.435Z,5.38
2023-05-10T15:22:57.176Z,6.72
2023-05-10T15:25:00.190Z,6.13
2023-05-10T15:27:02.958Z,4.70
2023-05-10T15:29:05.565Z,5.32
2023-05-10T15:31:09.559Z,5.80
2023-05-10T15:33:13.158Z,4.45
2023-05-10T15:35:15.911Z,5.50
2023-05-10T15:37:18.528Z,7.82
2023-05-10T15:39:21.211Z,5.88
2023-05-10T15:41:24.499Z,5.30
2023-05-10T15:43:27.242Z,5.03
2023-05-10T15:45:29.878Z,5.95
2023-05-10T15:47:34.178Z,5.20
2023-05-10T15:49:36.964Z,7.03
2023-05-10T15:51:39.606Z,5.85
2023-05-10T15:53:52.839Z,6.55
2023-05-10T15:56:04.203Z,6.28
2023-05-10T15:58:06.859Z,4.60
2023-05-10T16:00:09.919Z,7.90
2023-05-10T16:02:12.613Z,6.18
2023-05-10T16:04:16.754Z,4.68
2023-05-10T16:06:19.687Z,7.72
2023-05-10T16:08:22.321Z,7.50
2023-05-10T16:10:24.982Z,7.40
2023-05-10T16:12:27.545Z,5.50
2023-05-10T16:14:30.653Z,5.07
2023-05-10T16:16:33.408Z,5.32
2023-05-10T16:18:36.407Z,4.97
2023-05-10T16:20:40.517Z,4.88
2023-05-10T16:22:44.404Z,5.25
2023-05-10T16:24:47.030Z,5.65
2023-05-10T16:26:49.600Z,4.95
2023-05-10T16:28:52.373Z,6.47
2023-05-10T16:30:54.935Z,6.10
2023-05-10T16:32:57.548Z,7.95
2023-05-10T16:35:00.168Z,5.32
2023-05-10T16:37:04.192Z,6.97
2023-05-10T16:39:07.132Z,7.00
2023-05-10T16:41:09.677Z,6.55
2023-05-10T16:43:12.276Z,6.18
2023-05-10T16:45:16.371Z,5.50
2023-05-10T16:47:19.221Z,6.15
2023-05-10T16:49:23.791Z,6.32
2023-05-10T16:51:29.328Z,5.45
2023-05-10T16:53:33.777Z,6.00
2023-05-10T16:55:36.383Z,6.85
2023-05-10T16:57:39.010Z,5.20
2023-05-10T16:59:41.568Z,4.38
2023-05-10T17:01:44.938Z,2.78
2023-05-10T17:03:47.819Z,4.20
2023-05-10T17:05:50.483Z,7.20
2023-05-10T17:07:53.085Z,5.25
2023-05-10T17:09:59.082Z,5.32
2023-05-10T17:12:03.330Z,5.35
2023-05-10T17:14:06.064Z,5.40
2023-05-10T17:16:09.269Z,6.68
2023-05-10T17:18:12.236Z,5.13
2023-05-10T17:20:14.864Z,6.78
2023-05-10T17:22:17.430Z,5.50
2023-05-10T17:24:20.033Z,4.35
2023-05-10T17:26:24.236Z,4.93
2023-05-10T17:28:26.906Z,6.13
2023-05-10T17:30:32.590Z,5.97
2023-05-10T17:32:35.228Z,5.88
2023-05-10T17:34:38.178Z,7.32
2023-05-10T17:36:40.775Z,6.10
2023-05-10T17:38:44.222Z,7.55
2023-05-10T17:40:46.798Z,7.10
2023-05-10T17:42:50.945Z,7.35
2023-05-10T17:44:53.768Z,7.35
2023-05-10T17:46:56.340Z,5.47
2023-05-10T17:48:59.048Z,7.18
2023-05-10T17:51:01.660Z,7.60
2023-05-10T17:53:04.284Z,7.88
2023-05-10T17:55:07.483Z,6.57
2023-05-10T17:57:10.049Z,7.50
2023-05-10T17:59:14.060Z,6.00
2023-05-10T18:01:17.378Z,6.10
2023-05-10T18:03:20.054Z,7.07
2023-05-10T18:05:23.053Z,6.80
2023-05-10T18:07:27.155Z,15.63
2023-05-10T18:09:30.265Z,15.55
2023-05-10T18:11:32.901Z,11.43
2023-05-10T18:13:35.770Z,9.13
2023-05-10T18:15:39.763Z,12.55
2023-05-10T18:17:42.454Z,5.60
2023-05-10T18:19:44.993Z,5.90
2023-05-10T18:21:47.667Z,4.38
2023-05-10T18:23:50.511Z,5.05
2023-05-10T18:25:53.387Z,4.97
2023-05-10T18:27:56.036Z,5.00
2023-05-10T18:29:58.653Z,4.50
2023-05-10T18:32:02.800Z,4.40
2023-05-10T18:34:05.626Z,3.25
2023-05-10T18:36:08.581Z,5.25
2023-05-10T18:38:11.791Z,5.15
2023-05-10T18:40:14.490Z,4.68
2023-05-10T18:42:17.507Z,5.22
2023-05-10T18:44:21.849Z,2.45
2023-05-10T18:46:24.411Z,5.95
2023-05-10T18:48:28.480Z,4.53
2023-05-10T18:50:31.298Z,3.53
2023-05-10T18:52:34.089Z,3.70
2023-05-10T18:54:36.786Z,3.67
2023-05-10T18:56:40.004Z,4.95
2023-05-10T18:58:42.569Z,4.68
2023-05-10T19:00:45.170Z,5.22
2023-05-10T19:02:47.803Z,3.75
2023-05-10T19:04:51.941Z,4.85
2023-05-10T19:06:55.712Z,5.45
2023-05-10T19:08:58.379Z,4.22
2023-05-10T19:11:01.022Z,4.78
2023-05-10T19:13:03.595Z,6.60
2023-05-10T19:15:06.752Z,4.57
2023-05-10T19:17:09.363Z,5.43
2023-05-10T19:19:14.248Z,5.25
2023-05-10T19:21:18.394Z,4.70
2023-05-10T19:23:21.176Z,4.63
2023-05-10T19:25:29.212Z,7.10
2023-05-10T19:27:32.761Z,5.38
2023-05-10T19:29:35.518Z,6.10
2023-05-10T19:31:38.342Z,5.88
2023-05-10T19:33:41.022Z,6.65
2023-05-10T19:35:43.804Z,5.45
2023-05-10T19:37:47.814Z,4.32
2023-05-10T19:39:51.444Z,8.25
2023-05-10T19:41:54.237Z,7.03
2023-05-10T19:43:56.925Z,4.32
2023-05-10T19:46:00.101Z,5.78
2023-05-10T19:48:03.082Z,5.63
2023-05-10T19:50:07.047Z,7.30
2023-05-10T19:52:11.882Z,6.18
2023-05-10T19:54:16.211Z,5.95
2023-05-10T19:56:19.473Z,4.38
2023-05-10T19:58:22.091Z,5.32
2023-05-10T20:00:27.247Z,4.65
2023-05-10T20:02:29.938Z,7.55
2023-05-10T20:04:33.877Z,5.35
2023-05-10T20:06:36.625Z,4.68
2023-05-10T20:08:39.200Z,4.85
2023-05-10T20:10:43.220Z,6.25
2023-05-10T20:12:49.638Z,3.80
2023-05-10T20:14:52.213Z,4.32
2023-05-10T20:16:55.019Z,6.70
2023-05-10T20:18:57.805Z,5.05
2023-05-10T20:21:01.614Z,3.88
2023-05-10T20:23:04.320Z,5.28
2023-05-10T20:25:07.693Z,5.57
2023-05-10T20:27:11.744Z,4.35
2023-05-10T20:29:14.425Z,4.47
2023-05-10T20:31:17.424Z,3.92
2023-05-10T20:33:20.095Z,4.18
2023-05-10T20:35:22.854Z,6.32
2023-05-10T20:37:25.566Z,6.30
2023-05-10T20:39:28.993Z,3.80
2023-05-10T20:41:31.804Z,4.10
2023-05-10T20:43:35.802Z,5.07
2023-05-10T20:45:38.532Z,4.38
2023-05-10T20:47:41.173Z,4.20
2023-05-10T20:49:44.147Z,3.88
2023-05-10T20:51:46.873Z,4.35
2023-05-10T20:53:49.771Z,2.75
2023-05-10T20:55:52.356Z,3.13
2023-05-10T20:57:55.037Z,6.55
2023-05-10T20:59:59.015Z,4.55
2023-05-10T21:02:01.814Z,6.80
2023-05-10T21:04:04.569Z,2.28
2023-05-10T21:06:07.178Z,4.97
2023-05-10T21:08:09.841Z,2.47
2023-05-10T21:10:12.673Z,4.05
2023-05-10T21:12:15.289Z,4.32
2023-05-10T21:14:17.914Z,4.32
2023-05-10T21:16:21.956Z,3.63
2023-05-10T21:18:24.738Z,3.50
2023-05-10T21:20:27.330Z,2.25
2023-05-10T21:22:29.939Z,3.60
2023-05-10T21:24:33.300Z,3.65
2023-05-10T21:26:36.369Z,4.07
2023-05-10T21:28:40.189Z,2.95
2023-05-10T21:30:42.902Z,2.97
2023-05-10T21:32:46.994Z,3.13
2023-05-10T21:34:49.880Z,3.58
2023-05-10T21:36:52.570Z,4.07
2023-05-10T21:38:55.150Z,4.25
2023-05-10T21:40:57.755Z,3.78
2023-05-10T21:43:00.574Z,4.63
2023-05-10T21:45:03.427Z,3.05
2023-05-10T21:47:06.342Z,4.72
2023-05-10T21:49:10.285Z,4.32
2023-05-10T21:51:13.269Z,3.88
2023-05-10T21:53:16.096Z,4.20
2023-05-10T21:55:19.323Z,3.28
2023-05-10T21:57:22.869Z,3.80
2023-05-10T21:59:25.590Z,4.10
2023-05-10T22:01:28.482Z,5.25
2023-05-10T22:03:31.180Z,3.58
2023-05-10T22:05:35.329Z,4.30
2023-05-10T22:07:38.125Z,4.32
2023-05-10T22:09:40.769Z,3.58
2023-05-10T22:11:43.409Z,3.55
2023-05-10T22:13:45.984Z,3.75
2023-05-10T22:15:48.632Z,2.70
2023-05-10T22:17:51.429Z,3.50
2023-05-10T22:19:54.390Z,3.05
2023-05-10T22:21:58.330Z,2.88
2023-05-10T22:24:01.385Z,3.90
2023-05-10T22:26:04.148Z,4.30
2023-05-10T22:28:07.429Z,3.95
2023-05-10T22:30:10.677Z,3.72
2023-05-10T22:32:13.508Z,2.85
2023-05-10T22:34:16.073Z,3.17
2023-05-10T22:36:18.716Z,3.80
2023-05-10T22:38:22.760Z,3.83
2023-05-10T22:40:25.826Z,2.75
2023-05-10T22:42:28.496Z,2.90
2023-05-10T22:44:31.385Z,3.95
2023-05-10T22:46:34.196Z,3.53
2023-05-10T22:48:37.136Z,2.85
2023-05-10T22:50:39.828Z,2.72
2023-05-10T22:52:42.483Z,4.15
2023-05-10T22:54:46.568Z,3.50
2023-05-10T22:56:49.222Z,3.80
2023-05-10T22:58:52.169Z,5.70
2023-05-10T23:00:54.794Z,5.35
2023-05-10T23:02:57.490Z,5.32
2023-05-10T23:05:00.345Z,3.05
2023-05-10T23:07:03.171Z,3.13
2023-05-10T23:09:05.798Z,3.05
2023-05-10T23:11:09.882Z,3.17
2023-05-10T23:13:12.463Z,3.28
2023-05-10T23:15:15.243Z,2.65
2023-05-10T23:17:17.934Z,3.83
2023-05-10T23:19:21.166Z,3.38
2023-05-10T23:21:25.687Z,2.85
2023-05-10T23:23:28.509Z,3.65
2023-05-10T23:25:31.113Z,4.03
2023-05-10T23:27:35.076Z,3.92
2023-05-10T23:29:37.806Z,4.10
2023-05-10T23:31:45.218Z,4.00
2023-05-10T23:33:48.117Z,2.85
2023-05-10T23:35:50.823Z,3.88
2023-05-10T23:37:53.570Z,3.92
2023-05-10T23:39:56.265Z,5.72
2023-05-10T23:41:58.853Z,4.43
2023-05-10T23:44:03.235Z,3.80
2023-05-10T23:46:06.541Z,4.65
2023-05-10T23:48:09.331Z,4.65
2023-05-10T23:50:12.087Z,6.05
2023-05-10T23:52:14.774Z,3.63
2023-05-10T23:54:17.474Z,4.28
2023-05-10T23:56:20.333Z,3.10
2023-05-10T23:58:23.124Z,2.78
